Time;durP1;ratioP1;P1;durP2;ratioP2;P2;SDS_P1;SDS_P2;PMS_P1;PMS_P2;Temp;Humidity;BMP_temperature;BMP_pressure;BME280_temperature;BME280_humidity;BME280_pressure;Samples;Min_cycle;Max_cycle;Signal;HPM_P1;HPM_P2
2021/08/03 00:00:42;;;;;;;2.37;1.17;;;;;;;14.42;87.34;100144.59;5054546;28;20225;-74
2021/08/03 00:03:10;;;;;;;1.20;0.80;;;;;;;14.57;87.12;100152.81;5053963;28;20282;-74
2021/08/03 00:05:39;;;;;;;1.20;1.07;;;;;;;14.54;87.03;100163.41;5054562;28;20262;-74
2021/08/03 00:08:10;;;;;;;2.67;1.17;;;;;;;14.43;87.98;100146.31;5054895;28;20266;-74
2021/08/03 00:10:37;;;;;;;1.10;0.90;;;;;;;14.32;88.13;100134.53;5048503;28;20618;-74
2021/08/03 00:13:05;;;;;;;1.20;1.10;;;;;;;14.33;88.49;100134.47;5053607;28;20228;-74
2021/08/03 00:15:32;;;;;;;1.47;1.10;;;;;;;14.59;88.31;100143.09;5054473;28;20275;-74
2021/08/03 00:17:58;;;;;;;2.03;0.90;;;;;;;14.57;87.96;100164.19;5054208;28;20733;-75
2021/08/03 00:20:27;;;;;;;1.63;1.10;;;;;;;14.59;88.00;100159.72;5053843;28;20277;-75
2021/08/03 00:22:59;;;;;;;2.30;1.10;;;;;;;14.58;88.17;100160.63;5053428;28;20225;-74
2021/08/03 00:25:28;;;;;;;4.47;1.67;;;;;;;14.56;88.43;100156.31;5055639;28;20209;-75
2021/08/03 00:27:54;;;;;;;1.13;1.03;;;;;;;14.51;88.76;100143.38;5054356;28;20212;-75
2021/08/03 00:30:24;;;;;;;1.67;1.00;;;;;;;14.77;88.71;100141.50;5054468;28;20203;-75
2021/08/03 00:32:51;;;;;;;1.70;1.00;;;;;;;14.97;87.91;100172.22;5053092;28;20275;-74
2021/08/03 00:35:17;;;;;;;2.90;0.83;;;;;;;15.10;87.11;100197.06;5052377;28;20201;-75
2021/08/03 00:37:44;;;;;;;0.80;0.80;;;;;;;15.27;87.41;100193.72;5054291;28;20216;-75
2021/08/03 00:40:13;;;;;;;3.43;1.00;;;;;;;15.36;85.58;100258.22;5050857;28;20652;-74
2021/08/03 00:42:40;;;;;;;1.23;0.90;;;;;;;15.40;85.42;100265.94;5050575;28;20225;-74
2021/08/03 00:45:07;;;;;;;4.57;0.80;;;;;;;15.47;85.18;100291.06;5053672;28;20206;-75
2021/08/03 00:47:35;;;;;;;1.30;0.80;;;;;;;15.55;84.95;100295.16;5053434;28;20277;-75
2021/08/03 00:50:01;;;;;;;1.20;1.10;;;;;;;15.55;84.83;100303.91;5053842;28;20202;-75
2021/08/03 00:52:29;;;;;;;0.90;0.90;;;;;;;15.58;84.25;100316.06;5053028;28;20232;-74
2021/08/03 00:54:55;;;;;;;2.70;1.20;;;;;;;15.60;84.06;100327.38;5053656;28;20208;-75
2021/08/03 00:57:22;;;;;;;2.30;1.03;;;;;;;15.60;84.22;100330.00;5053623;28;20216;-75
2021/08/03 00:59:48;;;;;;;1.50;0.97;;;;;;;15.64;85.36;100286.88;5053721;28;20643;-75
2021/08/03 01:02:15;;;;;;;2.13;0.90;;;;;;;15.68;85.25;100270.91;5052695;28;20332;-74
2021/08/03 01:04:42;;;;;;;2.50;1.00;;;;;;;15.71;84.92;100293.59;5053233;28;20265;-75
2021/08/03 01:07:28;;;;;;;1.80;0.80;;;;;;;15.74;85.19;100285.59;5053773;28;20201;-75
2021/08/03 01:10:05;;;;;;;1.73;1.00;;;;;;;15.74;85.19;100285.59;5052465;28;20212;-75
2021/08/03 01:12:44;;;;;;;1.00;0.90;;;;;;;15.76;85.06;100301.34;5048817;28;20228;-74
2021/08/03 01:15:16;;;;;;;0.90;0.90;;;;;;;15.74;84.81;100309.28;5033621;28;20214;-75
2021/08/03 01:17:48;;;;;;;1.00;0.80;;;;;;;15.72;84.88;100304.94;5032907;28;20645;-75
2021/08/03 01:20:24;;;;;;;0.93;0.87;;;;;;;15.75;84.96;100315.41;5033544;28;20210;-75
2021/08/03 01:23:08;;;;;;;1.83;1.10;;;;;;;15.74;84.94;100319.81;5032405;28;20222;-74
2021/08/03 01:25:43;;;;;;;1.23;0.90;;;;;;;15.61;85.37;100308.06;5033187;28;20614;-75
2021/08/03 01:28:18;;;;;;;1.47;0.87;;;;;;;15.39;83.14;100387.00;5033588;28;20193;-75
2021/08/03 01:30:47;;;;;;;1.63;1.03;;;;;;;15.50;85.11;100313.78;5033259;28;20189;-75
2021/08/03 01:33:17;;;;;;;2.33;1.00;;;;;;;15.43;84.46;100310.53;5030436;28;20233;-74
2021/08/03 01:35:44;;;;;;;1.33;0.90;;;;;;;15.35;84.82;100338.91;5033545;28;20194;-74
2021/08/03 01:38:12;;;;;;;3.17;1.27;;;;;;;15.42;86.13;100279.91;5035357;28;20622;-75
2021/08/03 01:40:41;;;;;;;2.30;0.90;;;;;;;15.51;86.58;100256.75;5044019;28;20590;-75
2021/08/03 01:43:09;;;;;;;0.83;0.70;;;;;;;15.52;85.92;100276.84;5043623;28;20275;-75
2021/08/03 01:45:38;;;;;;;1.20;1.10;;;;;;;15.55;85.72;100290.75;5042569;28;20206;-75
2021/08/03 01:48:06;;;;;;;1.30;0.80;;;;;;;15.59;85.36;100309.88;5040908;28;20202;-75
2021/08/03 01:50:34;;;;;;;1.43;0.80;;;;;;;15.58;84.60;100337.09;5042908;28;20208;-74
2021/08/03 01:53:03;;;;;;;0.90;0.90;;;;;;;15.56;84.84;100321.41;5042491;28;20228;-75
2021/08/03 01:55:32;;;;;;;0.90;0.90;;;;;;;15.62;85.57;100308.00;5042555;28;20217;-74
2021/08/03 01:57:59;;;;;;;1.63;1.00;;;;;;;15.64;85.86;100300.03;5040849;28;20209;-75
2021/08/03 02:00:26;;;;;;;1.80;1.10;;;;;;;15.57;85.47;100306.47;5040364;28;20721;-75
2021/08/03 02:02:54;;;;;;;1.73;0.80;;;;;;;15.59;85.67;100297.59;5041379;28;20275;-75
2021/08/03 02:05:20;;;;;;;7.60;1.53;;;;;;;15.61;85.61;100303.63;5040817;28;20210;-75
2021/08/03 02:07:47;;;;;;;1.33;1.03;;;;;;;15.56;85.17;100317.91;5042964;28;20617;-75
2021/08/03 02:10:14;;;;;;;0.90;0.90;;;;;;;15.57;85.67;100302.06;5041616;28;20202;-75
2021/08/03 02:12:41;;;;;;;0.90;0.90;;;;;;;15.54;85.67;100309.22;5045415;28;20230;-75
2021/08/03 02:15:09;;;;;;;1.17;1.03;;;;;;;15.56;86.25;100287.22;5042670;28;20261;-74
2021/08/03 02:17:37;;;;;;;1.10;1.00;;;;;;;15.59;86.15;100283.59;5042256;28;20256;-75
2021/08/03 02:20:07;;;;;;;1.00;1.00;;;;;;;15.63;86.07;100288.63;5040653;28;20202;-75
2021/08/03 02:22:34;;;;;;;1.63;1.00;;;;;;;15.60;86.39;100280.91;5040340;28;20221;-75
2021/08/03 02:25:00;;;;;;;2.60;1.00;;;;;;;15.52;85.73;100304.03;5042876;28;20206;-74
2021/08/03 02:27:26;;;;;;;1.17;0.97;;;;;;;15.41;85.30;100319.41;5041001;28;20206;-75
2021/08/03 02:29:53;;;;;;;0.93;0.80;;;;;;;15.40;85.88;100297.50;5041336;28;20660;-74
2021/08/03 02:32:25;;;;;;;1.20;1.10;;;;;;;15.40;85.67;100297.50;5042459;28;20222;-75
2021/08/03 02:34:55;;;;;;;1.00;0.83;;;;;;;15.40;85.70;100296.63;5042015;28;20224;-74
2021/08/03 02:37:31;;;;;;;0.97;0.97;;;;;;;15.37;85.57;100291.50;5040839;28;20201;-74
2021/08/03 02:40:00;;;;;;;1.13;1.03;;;;;;;15.35;85.65;100299.47;5041254;28;20827;-74
2021/08/03 02:42:27;;;;;;;1.33;1.20;;;;;;;15.37;85.83;100292.38;5044836;28;20283;-75
2021/08/03 02:44:58;;;;;;;1.30;1.17;;;;;;;15.33;85.62;100293.41;5043406;28;20198;-76
2021/08/03 02:47:29;;;;;;;1.40;0.93;;;;;;;15.31;85.56;100308.41;5040134;28;20613;-75
2021/08/03 02:50:05;;;;;;;1.43;1.10;;;;;;;15.31;85.35;100304.91;5041399;28;20207;-76
2021/08/03 02:52:37;;;;;;;1.57;0.93;;;;;;;15.29;85.30;100320.75;5031376;28;20226;-75
2021/08/03 02:55:06;;;;;;;1.17;1.03;;;;;;;15.29;85.66;100310.25;5031986;28;20605;-75
2021/08/03 02:57:36;;;;;;;1.97;1.23;;;;;;;15.27;85.44;100325.22;5032137;28;20242;-75
2021/08/03 03:00:06;;;;;;;1.63;1.17;;;;;;;15.28;85.77;100311.13;5030806;28;20218;-76
2021/08/03 03:02:37;;;;;;;2.03;1.33;;;;;;;15.24;85.13;100326.22;5031223;28;20624;-75
2021/08/03 03:05:09;;;;;;;1.20;1.10;;;;;;;15.26;85.54;100315.59;5032398;28;20281;-75
2021/08/03 03:07:41;;;;;;;1.30;0.90;;;;;;;15.25;84.99;100327.91;5032274;28;20210;-75
2021/08/03 03:10:14;;;;;;;3.27;1.00;;;;;;;15.26;85.58;100316.50;5033988;28;20252;-75
2021/08/03 03:12:44;;;;;;;1.43;1.03;;;;;;;15.31;86.05;100287.34;5052606;28;20229;-75
2021/08/03 03:15:15;;;;;;;2.57;1.43;;;;;;;15.33;85.50;100313.59;5055446;28;20759;-75
2021/08/03 03:17:42;;;;;;;0.97;0.87;;;;;;;15.28;85.31;100316.41;5055782;28;20208;-75
2021/08/03 03:20:09;;;;;;;1.67;1.10;;;;;;;15.26;85.86;100303.34;5055802;28;20208;-75
2021/08/03 03:22:42;;;;;;;2.20;1.27;;;;;;;15.27;86.41;100288.41;5054256;28;21082;-75
2021/08/03 03:25:12;;;;;;;1.87;1.20;;;;;;;15.23;86.14;100292.94;5055726;28;20262;-75
2021/08/03 03:27:39;;;;;;;1.57;1.47;;;;;;;15.19;86.28;100286.09;5055619;28;20212;-76
2021/08/03 03:30:08;;;;;;;2.07;1.13;;;;;;;15.15;85.74;100297.66;5055393;28;20216;-75
2021/08/03 03:32:36;;;;;;;1.93;1.17;;;;;;;15.23;86.31;100289.44;5054829;28;20269;-75
2021/08/03 03:35:02;;;;;;;1.40;1.23;;;;;;;15.21;86.42;100286.03;5055013;28;20269;-75
2021/08/03 03:37:31;;;;;;;2.83;1.20;;;;;;;15.19;86.27;100286.09;5055421;28;20207;-75
2021/08/03 03:39:58;;;;;;;1.33;1.00;;;;;;;15.17;86.66;100281.81;5054246;28;20210;-75
2021/08/03 03:42:30;;;;;;;1.40;1.30;;;;;;;15.15;86.39;100275.75;5049697;28;20646;-75
2021/08/03 03:44:56;;;;;;;1.37;1.23;;;;;;;15.14;86.49;100277.50;5054951;28;20201;-74
2021/08/03 03:47:29;;;;;;;1.63;1.33;;;;;;;15.14;86.36;100276.66;5054869;28;20211;-75
2021/08/03 03:49:59;;;;;;;1.30;1.20;;;;;;;15.11;86.90;100267.13;5054966;28;20231;-76
2021/08/03 03:52:30;;;;;;;0.90;0.90;;;;;;;15.15;87.14;100262.63;5054202;28;20271;-75
2021/08/03 03:54:56;;;;;;;1.50;1.30;;;;;;;15.16;87.06;100262.53;5055108;28;20256;-76
2021/08/03 03:57:25;;;;;;;1.30;1.20;;;;;;;15.22;87.37;100250.91;5055107;28;20213;-76
2021/08/03 03:59:57;;;;;;;1.30;1.20;;;;;;;15.29;87.46;100255.84;5053687;28;20259;-76
2021/08/03 04:02:25;;;;;;;1.10;0.90;;;;;;;15.29;86.49;100292.69;5053727;28;20232;-75
2021/08/03 04:04:52;;;;;;;2.00;1.17;;;;;;;15.31;86.40;100295.25;5054517;28;20212;-75
2021/08/03 04:07:19;;;;;;;1.33;1.13;;;;;;;15.25;86.34;100304.25;5054999;28;20248;-75
2021/08/03 04:09:46;;;;;;;1.63;1.27;;;;;;;15.22;86.52;100299.13;5054587;28;20623;-75
2021/08/03 04:12:13;;;;;;;1.33;1.23;;;;;;;15.15;86.77;100278.41;5047650;28;20772;-75
2021/08/03 04:14:42;;;;;;;2.03;1.30;;;;;;;15.14;86.78;100279.28;5054788;28;20205;-76
2021/08/03 04:17:09;;;;;;;1.30;1.20;;;;;;;15.16;86.79;100280.94;5054536;28;20626;-75
2021/08/03 04:19:35;;;;;;;1.77;1.40;;;;;;;15.20;86.83;100289.56;5054070;28;20206;-75
2021/08/03 04:22:02;;;;;;;1.20;1.10;;;;;;;15.22;86.50;100288.59;5052935;28;20236;-75
2021/08/03 04:24:28;;;;;;;1.50;1.23;;;;;;;15.25;86.62;100285.84;5054399;28;20218;-76
2021/08/03 04:26:56;;;;;;;2.53;2.30;;;;;;;15.30;86.53;100298.78;5054094;28;20661;-75
2021/08/03 04:29:22;;;;;;;1.73;1.40;;;;;;;15.36;87.08;100280.16;5053907;28;20261;-76
2021/08/03 04:31:50;;;;;;;2.17;1.77;;;;;;;15.41;86.94;100278.16;5054416;28;20217;-76
2021/08/03 04:34:16;;;;;;;1.37;1.20;;;;;;;15.44;86.53;100292.97;5053843;28;20209;-76
2021/08/03 04:36:43;;;;;;;1.33;1.23;;;;;;;15.43;85.65;100318.41;5054200;28;20208;-75
2021/08/03 04:39:11;;;;;;;2.20;1.23;;;;;;;15.43;86.10;100314.94;5054204;28;20215;-76
2021/08/03 04:41:38;;;;;;;1.47;1.20;;;;;;;15.43;86.83;100283.38;5047653;28;20256;-75
2021/08/03 04:44:05;;;;;;;1.17;1.13;;;;;;;15.46;87.19;100268.31;5052742;28;20290;-76
2021/08/03 04:46:32;;;;;;;1.60;1.50;;;;;;;15.45;86.27;100303.41;5053727;28;20737;-75
2021/08/03 04:49:00;;;;;;;1.87;1.17;;;;;;;15.44;86.47;100303.47;5053691;28;20342;-75
2021/08/03 04:51:27;;;;;;;1.80;1.43;;;;;;;15.46;86.99;100285.84;5053634;28;20205;-75
2021/08/03 04:53:53;;;;;;;1.60;1.50;;;;;;;15.42;86.87;100293.03;5053129;28;20216;-76
2021/08/03 04:56:20;;;;;;;1.50;1.40;;;;;;;15.45;87.30;100273.63;5053644;28;20247;-75
2021/08/03 04:58:46;;;;;;;1.57;1.47;;;;;;;15.47;87.22;100270.00;5053917;28;20208;-76
2021/08/03 05:01:13;;;;;;;1.70;1.60;;;;;;;15.41;86.82;100290.47;5053074;28;20289;-76
2021/08/03 05:03:39;;;;;;;2.80;1.70;;;;;;;15.44;87.04;100287.69;5052462;28;20715;-76
2021/08/03 05:06:07;;;;;;;2.40;1.60;;;;;;;15.25;86.28;100313.91;5053568;28;20545;-75
2021/08/03 05:08:34;;;;;;;1.70;1.50;;;;;;;15.13;86.40;100309.16;5053650;28;20553;-75
2021/08/03 05:11:00;;;;;;;5.27;1.70;;;;;;;15.06;87.34;100282.22;5047261;28;20194;-75
2021/08/03 05:13:26;;;;;;;2.27;2.17;;;;;;;15.04;87.70;100268.28;5052297;28;20255;-76
2021/08/03 05:15:53;;;;;;;6.43;1.80;;;;;;;14.99;87.52;100280.78;5053278;28;20628;-76
2021/08/03 05:18:19;;;;;;;1.57;1.47;;;;;;;15.12;87.90;100265.34;5053387;28;20210;-75
2021/08/03 05:20:46;;;;;;;1.50;1.33;;;;;;;15.15;87.43;100281.88;5052887;28;20264;-75
2021/08/03 05:23:14;;;;;;;1.83;1.73;;;;;;;15.11;87.13;100295.22;5052291;28;20787;-75
2021/08/03 05:25:40;;;;;;;4.53;2.00;;;;;;;15.19;87.76;100272.94;5052822;28;20208;-75
2021/08/03 05:28:08;;;;;;;2.40;1.90;;;;;;;15.22;86.69;100319.28;5053113;28;20203;-75
2021/08/03 05:30:35;;;;;;;2.03;1.47;;;;;;;15.27;86.44;100305.03;5052674;28;20213;-75
2021/08/03 05:33:01;;;;;;;3.63;2.00;;;;;;;15.29;87.43;100307.59;5051441;28;20624;-75
2021/08/03 05:35:27;;;;;;;2.13;1.80;;;;;;;15.51;88.45;100244.44;5052787;28;20204;-75
2021/08/03 05:37:54;;;;;;;52.27;9.90;;;;;;;15.63;88.49;100246.53;5053284;28;20259;-75
2021/08/03 05:40:22;;;;;;;12.17;2.93;;;;;;;15.27;85.71;100351.53;5048451;28;20209;-76
2021/08/03 05:42:48;;;;;;;2.13;1.90;;;;;;;15.27;86.82;100325.22;5050713;28;20240;-76
2021/08/03 05:45:15;;;;;;;3.33;1.80;;;;;;;15.06;86.85;100317.28;5052555;28;20259;-76
2021/08/03 05:47:41;;;;;;;3.10;1.90;;;;;;;15.22;88.11;100269.31;5052461;28;20614;-76
2021/08/03 05:50:09;;;;;;;2.23;1.67;;;;;;;15.22;87.26;100299.13;5052448;28;20209;-76
2021/08/03 05:52:35;;;;;;;3.70;2.33;;;;;;;15.36;88.73;100260.84;5051970;28;20271;-76
2021/08/03 05:55:02;;;;;;;3.30;2.17;;;;;;;15.46;88.13;100281.47;5052861;28;20208;-76
2021/08/03 05:57:30;;;;;;;3.63;2.10;;;;;;;15.35;86.80;100325.75;5052214;28;20208;-76
2021/08/03 05:59:57;;;;;;;1.90;1.70;;;;;;;15.45;87.44;100303.41;5051452;28;20213;-77
2021/08/03 06:02:23;;;;;;;1.67;1.57;;;;;;;15.35;86.61;100327.53;5051560;28;20240;-76
2021/08/03 06:04:50;;;;;;;3.13;2.30;;;;;;;15.34;86.61;100339.84;5052155;28;20671;-76
2021/08/03 06:07:18;;;;;;;2.73;2.07;;;;;;;15.29;86.37;100345.28;5046477;28;20206;-76
2021/08/03 06:09:45;;;;;;;2.73;1.93;;;;;;;15.20;87.27;100292.19;5040926;28;20619;-76
2021/08/03 06:12:11;;;;;;;2.20;1.63;;;;;;;15.23;88.03;100277.16;5044138;28;20682;-76
2021/08/03 06:14:42;;;;;;;2.93;2.03;;;;;;;15.21;88.17;100276.34;5043187;28;20190;-76
2021/08/03 06:17:10;;;;;;;5.13;2.60;;;;;;;15.27;87.96;100272.63;5041959;28;20204;-76
2021/08/03 06:19:42;;;;;;;2.03;1.80;;;;;;;15.23;87.91;100287.66;5038656;28;20208;-76
2021/08/03 06:22:10;;;;;;;2.97;2.13;;;;;;;15.29;87.42;100290.03;5040590;28;21094;-76
2021/08/03 06:24:37;;;;;;;2.80;2.20;;;;;;;15.12;86.66;100323.19;5040590;28;20200;-77
2021/08/03 06:27:06;;;;;;;2.97;2.17;;;;;;;15.26;86.90;100321.75;5040206;28;20636;-76
2021/08/03 06:29:34;;;;;;;4.83;1.93;;;;;;;15.37;86.80;100323.06;5041909;28;20673;-76
2021/08/03 06:32:03;;;;;;;2.20;2.07;;;;;;;15.23;85.51;100371.81;5039665;28;20638;-76
2021/08/03 06:34:30;;;;;;;2.40;2.20;;;;;;;15.27;85.71;100362.03;5041274;28;20200;-76
2021/08/03 06:36:56;;;;;;;2.10;1.97;;;;;;;15.45;86.34;100337.63;5041928;28;20609;-77
2021/08/03 06:39:23;;;;;;;3.37;2.20;;;;;;;15.43;86.26;100334.19;5040409;28;20692;-76
2021/08/03 06:41:57;;;;;;;3.37;2.47;;;;;;;15.18;85.86;100371.16;5045640;28;20308;-77
2021/08/03 06:44:27;;;;;;;3.93;2.53;;;;;;;15.29;85.30;100370.72;5042820;28;20197;-77
2021/08/03 06:46:59;;;;;;;3.30;3.00;;;;;;;15.23;85.75;100361.28;5041231;28;20725;-76
2021/08/03 06:49:32;;;;;;;3.53;2.70;;;;;;;15.25;85.83;100354.19;5040426;28;20203;-77
2021/08/03 06:51:59;;;;;;;4.13;2.40;;;;;;;15.42;85.65;100363.19;5039927;28;20227;-77
2021/08/03 06:54:30;;;;;;;2.43;2.30;;;;;;;15.60;86.55;100330.88;5040427;28;20201;-77
2021/08/03 06:57:03;;;;;;;2.50;2.30;;;;;;;15.75;87.56;100295.19;5041120;28;20203;-77
2021/08/03 06:59:34;;;;;;;2.80;2.40;;;;;;;15.69;85.57;100377.84;5041427;28;20197;-77
2021/08/03 07:02:06;;;;;;;3.97;2.63;;;;;;;15.88;85.72;100361.34;5039582;28;20269;-77
2021/08/03 07:04:44;;;;;;;2.80;2.40;;;;;;;15.99;85.20;100385.41;5040840;28;20287;-77
2021/08/03 07:07:11;;;;;;;2.57;2.37;;;;;;;16.12;83.44;100434.97;5041341;28;20205;-77
2021/08/03 07:09:41;;;;;;;2.13;1.53;;;;;;;16.12;81.10;100525.34;5040387;28;20194;-77
2021/08/03 07:12:09;;;;;;;2.23;1.40;;;;;;;16.19;80.88;100542.59;5044181;28;20774;-77
2021/08/03 07:14:37;;;;;;;3.03;1.50;;;;;;;16.31;79.43;100590.44;5042049;28;20208;-77
2021/08/03 07:17:05;;;;;;;7.00;1.77;;;;;;;16.41;78.60;100602.31;5042316;28;20197;-77
2021/08/03 07:19:32;;;;;;;2.47;1.80;;;;;;;16.35;78.32;100640.31;5043889;28;20202;-76
2021/08/03 07:22:00;;;;;;;4.13;1.93;;;;;;;16.20;79.27;100611.94;5039155;28;21878;-77
2021/08/03 07:24:29;;;;;;;3.87;1.80;;;;;;;16.06;79.21;100588.78;5040606;28;20206;-77
2021/08/03 07:26:57;;;;;;;2.60;2.10;;;;;;;16.17;80.17;100554.97;5040170;28;20205;-77
2021/08/03 07:29:24;;;;;;;2.30;1.90;;;;;;;16.25;80.77;100544.13;5041908;28;20289;-77
2021/08/03 07:31:50;;;;;;;1.97;1.87;;;;;;;16.20;79.96;100575.94;5039628;28;20278;-76
2021/08/03 07:34:16;;;;;;;2.20;2.07;;;;;;;16.24;80.79;100550.31;5039936;28;20263;-77
2021/08/03 07:36:43;;;;;;;2.23;1.40;;;;;;;16.44;79.77;100567.94;5042039;28;20243;-77
2021/08/03 07:39:11;;;;;;;2.40;1.70;;;;;;;16.55;77.96;100631.63;5040977;28;20203;-77
2021/08/03 07:41:39;;;;;;;1.57;1.47;;;;;;;16.60;77.33;100677.06;5043043;28;20722;-77
2021/08/03 07:44:06;;;;;;;1.37;1.27;;;;;;;16.58;76.36;100710.53;5039757;28;20205;-77
2021/08/03 07:46:34;;;;;;;1.50;1.40;;;;;;;16.77;80.42;100560.41;5040885;28;20198;-77
2021/08/03 07:49:02;;;;;;;1.83;1.13;;;;;;;16.79;77.65;100642.06;5041499;28;20268;-77
2021/08/03 07:51:29;;;;;;;1.93;1.43;;;;;;;17.01;81.90;100494.38;5040511;28;20194;-77
2021/08/03 07:53:55;;;;;;;1.87;1.10;;;;;;;17.11;81.65;100493.03;5039468;28;20204;-77
2021/08/03 07:56:23;;;;;;;2.67;0.97;;;;;;;17.25;80.69;100509.06;5042979;28;20198;-77
2021/08/03 07:58:50;;;;;;;1.83;1.43;;;;;;;17.36;78.29;100616.78;5044409;28;20827;-77
2021/08/03 08:01:17;;;;;;;1.47;1.30;;;;;;;17.43;79.87;100573.34;5045244;28;20263;-77
2021/08/03 08:03:45;;;;;;;1.30;1.07;;;;;;;17.46;79.80;100549.47;5041774;28;20218;-77
2021/08/03 08:06:11;;;;;;;1.23;1.20;;;;;;;17.49;77.56;100632.91;5044216;28;20255;-77
2021/08/03 08:08:37;;;;;;;4.73;1.70;;;;;;;17.50;75.99;100697.97;5044881;28;20252;-77
2021/08/03 08:11:04;;;;;;;3.10;1.20;;;;;;;17.48;75.48;100726.22;5045728;28;20198;-77
2021/08/03 08:13:32;;;;;;;1.40;1.23;;;;;;;17.55;77.35;100629.16;5045519;28;20223;-77
2021/08/03 08:15:58;;;;;;;1.97;1.20;;;;;;;17.67;74.29;100739.47;5043197;28;20204;-77
2021/08/03 08:18:24;;;;;;;2.10;1.60;;;;;;;17.77;73.11;100813.88;5045182;28;20197;-77
2021/08/03 08:20:51;;;;;;;1.73;1.30;;;;;;;17.88;72.01;100838.09;5043403;28;20648;-77
2021/08/03 08:23:18;;;;;;;2.10;1.30;;;;;;;17.93;71.49;100866.94;5042167;28;20258;-77
2021/08/03 08:25:44;;;;;;;2.80;1.20;;;;;;;17.86;71.66;100842.56;5042873;28;20214;-77
2021/08/03 08:28:11;;;;;;;2.00;1.10;;;;;;;17.94;72.79;100806.13;5043964;28;20198;-77
2021/08/03 08:30:40;;;;;;;2.30;1.20;;;;;;;18.08;72.03;100818.72;5043531;28;20310;-77
2021/08/03 08:33:07;;;;;;;10.67;1.43;;;;;;;18.20;71.83;100826.09;5038513;28;20709;-76
2021/08/03 08:35:35;;;;;;;1.53;1.10;;;;;;;18.28;71.71;100848.69;5043192;28;20541;-77
2021/08/03 08:38:02;;;;;;;2.33;1.20;;;;;;;18.27;70.67;100879.53;5042218;28;20479;-77
2021/08/03 08:40:29;;;;;;;3.17;1.20;;;;;;;18.15;69.98;100907.34;5044694;28;20215;-77
2021/08/03 08:42:55;;;;;;;1.67;1.20;;;;;;;18.20;70.51;100876.31;5046720;28;20269;-77
2021/08/03 08:45:22;;;;;;;1.77;1.07;;;;;;;18.23;70.32;100877.94;5042649;28;20200;-77
2021/08/03 08:47:50;;;;;;;1.63;1.00;;;;;;;18.26;70.28;100873.38;5043999;28;20199;-77
2021/08/03 08:50:20;;;;;;;1.47;0.90;;;;;;;18.19;71.74;100852.59;5044080;28;20210;-77
2021/08/03 08:52:49;;;;;;;1.50;1.17;;;;;;;18.28;70.93;100838.97;5041830;28;20219;-76
2021/08/03 08:55:16;;;;;;;1.20;1.00;;;;;;;18.37;69.76;100890.56;5042981;28;20560;-77
2021/08/03 08:57:42;;;;;;;2.60;1.20;;;;;;;18.29;68.65;100946.38;5044504;28;20198;-76
2021/08/03 09:00:10;;;;;;;7.70;1.23;;;;;;;18.49;69.22;100916.44;5043258;28;20257;-77
2021/08/03 09:02:39;;;;;;;2.43;1.40;;;;;;;18.61;68.84;100921.19;5041412;28;20232;-77
2021/08/03 09:05:08;;;;;;;1.40;1.30;;;;;;;18.37;65.64;101041.22;5040634;28;20205;-77
2021/08/03 09:07:46;;;;;;;1.30;1.20;;;;;;;17.76;66.09;101040.13;5040050;28;20203;-77
2021/08/03 09:10:27;;;;;;;3.73;1.70;;;;;;;17.48;67.41;100979.59;5031807;28;21028;-76
2021/08/03 09:12:59;;;;;;;1.50;1.20;;;;;;;17.55;67.40;100974.94;5051311;28;20218;-76
2021/08/03 09:15:25;;;;;;;2.80;1.40;;;;;;;17.72;69.67;100866.00;5052808;28;20212;-77
2021/08/03 09:17:52;;;;;;;2.27;0.90;;;;;;;18.03;72.44;100778.44;5053454;28;20207;-77
2021/08/03 09:20:21;;;;;;;1.50;1.00;;;;;;;18.20;69.98;100875.44;5053332;28;20206;-77
2021/08/03 09:22:49;;;;;;;1.70;1.13;;;;;;;18.29;67.26;100938.47;5052437;28;20237;-76
2021/08/03 09:25:16;;;;;;;1.30;1.00;;;;;;;18.49;67.78;100955.25;5053187;28;20238;-77
2021/08/03 09:27:45;;;;;;;2.73;1.23;;;;;;;18.67;69.40;100941.19;5053897;28;20210;-78
2021/08/03 09:30:28;;;;;;;1.17;0.90;;;;;;;18.84;71.95;100764.13;5052715;28;20263;-78
2021/08/03 09:32:54;;;;;;;1.97;1.23;;;;;;;18.97;70.80;100779.41;5045175;28;20723;-77
2021/08/03 09:35:24;;;;;;;1.70;0.87;;;;;;;19.10;71.76;100779.66;5042895;28;20206;-77
2021/08/03 09:37:51;;;;;;;1.67;1.00;;;;;;;19.17;64.27;101096.03;5057605;28;20238;-78
2021/08/03 09:40:20;;;;;;;1.20;1.10;;;;;;;19.33;64.53;101080.31;5056742;28;20608;-78
2021/08/03 09:42:58;;;;;;;1.60;1.40;;;;;;;19.51;61.82;101177.44;5054637;28;20231;-78
2021/08/03 09:45:26;;;;;;;2.07;1.10;;;;;;;19.58;61.03;101221.28;5056767;28;20217;-78
2021/08/03 09:48:06;;;;;;;2.73;1.37;;;;;;;19.76;62.16;101149.88;5057654;28;20271;-77
2021/08/03 09:50:51;;;;;;;2.33;1.33;;;;;;;19.58;60.38;101249.53;5056024;28;20278;-77
2021/08/03 09:53:40;;;;;;;1.60;1.10;;;;;;;19.67;61.09;101217.34;5053715;28;20228;-78
2021/08/03 09:56:07;;;;;;;2.87;1.30;;;;;;;19.74;62.07;101157.91;5048330;28;20205;-78
2021/08/03 09:58:34;;;;;;;1.93;1.33;;;;;;;19.88;62.26;101121.94;5045974;28;20204;-78
2021/08/03 10:01:22;;;;;;;1.73;1.23;;;;;;;19.89;64.32;101063.59;5037523;28;20232;-78
2021/08/03 10:03:49;;;;;;;1.50;1.40;;;;;;;19.89;60.86;101174.03;5036880;28;20232;-78
2021/08/03 10:06:19;;;;;;;4.97;1.67;;;;;;;19.86;63.10;101095.56;5036063;28;20225;-77
2021/08/03 10:08:46;;;;;;;2.37;1.30;;;;;;;19.95;62.25;101136.63;5037101;28;20217;-78
2021/08/03 10:11:14;;;;;;;1.77;1.30;;;;;;;20.08;61.43;101185.50;5042043;28;20255;-78
2021/08/03 10:13:41;;;;;;;1.93;1.40;;;;;;;20.06;60.98;101136.13;5056789;28;20705;-78
2021/08/03 10:16:08;;;;;;;1.80;1.30;;;;;;;20.10;61.95;101150.94;5056324;28;20269;-78
2021/08/03 10:18:37;;;;;;;1.57;1.37;;;;;;;20.20;61.01;101145.16;5056819;28;20204;-78
2021/08/03 10:21:06;;;;;;;1.63;1.13;;;;;;;20.26;59.84;101210.28;5055964;28;20212;-78
2021/08/03 10:23:37;;;;;;;1.70;1.17;;;;;;;20.24;60.83;101173.22;5055361;28;20232;-78
2021/08/03 10:26:11;;;;;;;1.20;1.07;;;;;;;20.12;62.85;101077.50;5056163;28;20262;-78
2021/08/03 10:28:38;;;;;;;1.60;1.30;;;;;;;20.03;59.54;101192.78;5059088;28;20198;-79
2021/08/03 10:31:04;;;;;;;1.77;1.10;;;;;;;20.09;63.67;101025.53;5056134;28;20208;-79
2021/08/03 10:33:41;;;;;;;4.73;1.40;;;;;;;20.19;62.14;101087.75;5056467;28;20222;-82
2021/08/03 10:36:08;;;;;;;1.83;1.30;;;;;;;20.26;60.83;101154.59;5059739;28;20208;-81
2021/08/03 10:38:36;;;;;;;1.83;1.30;;;;;;;20.25;60.46;101187.34;5058230;28;20212;-80
2021/08/03 10:41:05;;;;;;;1.80;1.23;;;;;;;20.27;59.59;101192.56;5052498;28;20216;-82
2021/08/03 10:43:49;;;;;;;1.50;1.10;;;;;;;20.27;59.98;101185.47;5060115;28;20358;-82
2021/08/03 10:46:48;;;;;;;1.60;1.13;;;;;;;20.26;59.58;101204.09;5058680;28;20196;-82
2021/08/03 10:49:15;;;;;;;2.47;1.30;;;;;;;20.20;60.53;101137.19;5057454;28;20254;-78
2021/08/03 10:51:48;;;;;;;2.57;1.03;;;;;;;20.12;60.84;101149.06;5056136;28;20231;-78
2021/08/03 10:54:18;;;;;;;1.40;0.83;;;;;;;20.10;64.73;100934.47;5054223;28;20208;-78
2021/08/03 10:57:19;;;;;;;1.00;1.00;;;;;;;20.03;63.31;101017.88;5055954;28;20211;-78
2021/08/03 10:59:47;;;;;;;1.30;1.00;;;;;;;19.88;61.06;101159.03;5056005;28;20193;-78
2021/08/03 11:02:58;;;;;;;1.57;1.10;;;;;;;19.75;67.02;100877.97;5054998;28;20766;-79
2021/08/03 11:05:29;;;;;;;1.67;0.90;;;;;;;19.64;67.88;100812.25;5054922;28;20259;-78
2021/08/03 11:07:55;;;;;;;1.10;1.00;;;;;;;19.61;67.86;100829.16;5055903;28;20552;-78
2021/08/03 11:10:35;;;;;;;2.07;1.37;;;;;;;19.51;69.06;100797.94;5051687;28;20672;-77
2021/08/03 11:13:03;;;;;;;1.10;1.00;;;;;;;19.15;69.19;100772.38;5047620;28;20269;-78
2021/08/03 11:15:40;;;;;;;1.90;1.20;;;;;;;18.98;64.79;100922.19;5056142;28;20236;-78
2021/08/03 11:18:10;;;;;;;3.13;1.13;;;;;;;19.01;69.19;100813.56;5055982;28;20214;-78
2021/08/03 11:21:13;;;;;;;1.80;1.63;;;;;;;18.97;71.56;100700.91;5055432;28;20206;-78
2021/08/03 11:24:07;;;;;;;1.73;1.10;;;;;;;18.93;70.81;100712.56;5055533;28;20238;-79
2021/08/03 11:26:38;;;;;;;2.00;1.20;;;;;;;18.87;71.38;100704.06;5055897;28;20228;-78
2021/08/03 11:29:08;;;;;;;2.73;1.60;;;;;;;18.78;72.05;100677.09;5055846;28;20211;-79
2021/08/03 11:31:46;;;;;;;1.70;1.03;;;;;;;18.88;72.37;100664.31;5056894;28;20212;-78
2021/08/03 11:34:14;;;;;;;1.10;0.90;;;;;;;18.78;71.86;100661.22;5059258;28;20636;-79